sensor_id;sensor_type;location;lat;lon;timestamp;pressure;altitude;pressure_sealevel;temperature;humidity
49813;BME280;35706;52.100;5.056;2023-02-23T00:00:59;101263.94;;;7.45;100.00
49813;BME280;35706;52.100;5.056;2023-02-23T00:02:00;101261.84;;;7.38;100.00
49813;BME280;35706;52.100;5.056;2023-02-23T00:03:05;101258.50;;;7.36;100.00
49813;BME280;35706;52.100;5.056;2023-02-23T00:04:05;101270.41;;;7.40;100.00
49813;BME280;35706;52.100;5.056;2023-02-23T00:05:06;101262.25;;;7.44;100.00
49813;BME280;35706;52.100;5.056;2023-02-23T00:06:07;101265.41;;;7.37;100.00
49813;BME280;35706;52.100;5.056;2023-02-23T00:07:08;101263.81;;;7.34;100.00
49813;BME280;35706;52.100;5.056;2023-02-23T00:08:09;101259.00;;;7.41;100.00
49813;BME280;35706;52.100;5.056;2023-02-23T00:09:10;101266.25;;;7.37;100.00
49813;BME280;35706;52.100;5.056;2023-02-23T00:10:31;101260.88;;;7.39;100.00
49813;BME280;35706;52.100;5.056;2023-02-23T00:11:31;101264.56;;;7.36;100.00
49813;BME280;35706;52.100;5.056;2023-02-23T00:12:32;101255.88;;;7.36;100.00
49813;BME280;35706;52.100;5.056;2023-02-23T00:13:34;101253.91;;;7.39;100.00
49813;BME280;35706;52.100;5.056;2023-02-23T00:14:37;101252.53;;;7.33;100.00
49813;BME280;35706;52.100;5.056;2023-02-23T00:15:37;101251.88;;;7.30;100.00
49813;BME280;35706;52.100;5.056;2023-02-23T00:16:38;101260.06;;;7.25;100.00
49813;BME280;35706;52.100;5.056;2023-02-23T00:17:38;101253.16;;;7.24;100.00
49813;BME280;35706;52.100;5.056;2023-02-23T00:18:49;101252.75;;;7.30;100.00
49813;BME280;35706;52.100;5.056;2023-02-23T00:19:50;101261.31;;;7.32;100.00
49813;BME280;35706;52.100;5.056;2023-02-23T00:20:56;101255.47;;;7.29;100.00
49813;BME280;35706;52.100;5.056;2023-02-23T00:21:57;101257.03;;;7.31;100.00
49813;BME280;35706;52.100;5.056;2023-02-23T00:22:57;101258.59;;;7.34;100.00
49813;BME280;35706;52.100;5.056;2023-02-23T00:24:09;101252.53;;;7.33;100.00
49813;BME280;35706;52.100;5.056;2023-02-23T00:25:10;101254.22;;;7.34;100.00
49813;BME280;35706;52.100;5.056;2023-02-23T00:26:14;101256.84;;;7.34;100.00
49813;BME280;35706;52.100;5.056;2023-02-23T00:27:14;101260.06;;;7.38;100.00
49813;BME280;35706;52.100;5.056;2023-02-23T00:28:20;101260.47;;;7.32;100.00
49813;BME280;35706;52.100;5.056;2023-02-23T00:29:21;101254.81;;;7.38;100.00
49813;BME280;35706;52.100;5.056;2023-02-23T00:30:22;101250.66;;;7.36;100.00
49813;BME280;35706;52.100;5.056;2023-02-23T00:31:24;101254.94;;;7.37;100.00
49813;BME280;35706;52.100;5.056;2023-02-23T00:32:25;101251.47;;;7.36;100.00
49813;BME280;35706;52.100;5.056;2023-02-23T00:33:26;101255.66;;;7.39;100.00
49813;BME280;35706;52.100;5.056;2023-02-23T00:34:26;101253.75;;;7.41;100.00
49813;BME280;35706;52.100;5.056;2023-02-23T00:35:27;101260.78;;;7.40;100.00
49813;BME280;35706;52.100;5.056;2023-02-23T00:36:31;101254.72;;;7.40;100.00
49813;BME280;35706;52.100;5.056;2023-02-23T00:37:31;101253.75;;;7.41;100.00
49813;BME280;35706;52.100;5.056;2023-02-23T00:38:32;101250.31;;;7.40;100.00
49813;BME280;35706;52.100;5.056;2023-02-23T00:39:35;101254.81;;;7.38;100.00
49813;BME280;35706;52.100;5.056;2023-02-23T00:40:38;101255.66;;;7.39;100.00
49813;BME280;35706;52.100;5.056;2023-02-23T00:41:40;101253.91;;;7.39;100.00
49813;BME280;35706;52.100;5.056;2023-02-23T00:42:45;101251.16;;;7.41;100.00
49813;BME280;35706;52.100;5.056;2023-02-23T00:43:45;101255.56;;;7.40;100.00
49813;BME280;35706;52.100;5.056;2023-02-23T00:44:49;101253.66;;;7.42;100.00
49813;BME280;35706;52.100;5.056;2023-02-23T00:45:53;101250.72;;;7.47;100.00
49813;BME280;35706;52.100;5.056;2023-02-23T00:46:54;101249.91;;;7.46;100.00
49813;BME280;35706;52.100;5.056;2023-02-23T00:47:54;101254.09;;;7.49;100.00
49813;BME280;35706;52.100;5.056;2023-02-23T00:48:56;101256.50;;;7.52;100.00
49813;BME280;35706;52.100;5.056;2023-02-23T00:49:57;101259.63;;;7.44;100.00
49813;BME280;35706;52.100;5.056;2023-02-23T00:51:02;101255.97;;;7.47;100.00
49813;BME280;35706;52.100;5.056;2023-02-23T00:52:03;101249.91;;;7.46;100.00
49813;BME280;35706;52.100;5.056;2023-02-23T00:53:04;101251.69;;;7.46;100.00
49813;BME280;35706;52.100;5.056;2023-02-23T00:54:05;101248.97;;;7.47;100.00
49813;BME280;35706;52.100;5.056;2023-02-23T00:55:07;101245.72;;;7.44;100.00
49813;BME280;35706;52.100;5.056;2023-02-23T00:56:09;101241.22;;;7.46;100.00
49813;BME280;35706;52.100;5.056;2023-02-23T00:57:10;101240.50;;;7.44;100.00
49813;BME280;35706;52.100;5.056;2023-02-23T00:58:10;101244.16;;;7.41;100.00
49813;BME280;35706;52.100;5.056;2023-02-23T00:59:13;101238.81;;;7.43;100.00
49813;BME280;35706;52.100;5.056;2023-02-23T01:00:14;101244.78;;;7.45;100.00
49813;BME280;35706;52.100;5.056;2023-02-23T01:01:20;101233.47;;;7.44;100.00
49813;BME280;35706;52.100;5.056;2023-02-23T01:02:20;101246.47;;;7.46;100.00
49813;BME280;35706;52.100;5.056;2023-02-23T01:03:21;101248.25;;;7.45;100.00
49813;BME280;35706;52.100;5.056;2023-02-23T01:04:21;101242.28;;;7.43;100.00
49813;BME280;35706;52.100;5.056;2023-02-23T01:05:24;101248.53;;;7.41;100.00
49813;BME280;35706;52.100;5.056;2023-02-23T01:06:24;101239.66;;;7.43;100.00
49813;BME280;35706;52.100;5.056;2023-02-23T01:07:25;101244.78;;;7.45;100.00
49813;BME280;35706;52.100;5.056;2023-02-23T01:08:28;101237.78;;;7.45;100.00
49813;BME280;35706;52.100;5.056;2023-02-23T01:09:29;101239.44;;;7.46;100.00
49813;BME280;35706;52.100;5.056;2023-02-23T01:10:29;101241.22;;;7.46;100.00
49813;BME280;35706;52.100;5.056;2023-02-23T01:11:29;101246.47;;;7.46;100.00
49813;BME280;35706;52.100;5.056;2023-02-23T01:12:30;101247.59;;;7.42;100.00
49813;BME280;35706;52.100;5.056;2023-02-23T01:13:34;101247.72;;;7.40;100.00
49813;BME280;35706;52.100;5.056;2023-02-23T01:14:35;101245.91;;;7.41;100.00
49813;BME280;35706;52.100;5.056;2023-02-23T01:15:41;101252.84;;;7.42;100.00
49813;BME280;35706;52.100;5.056;2023-02-23T01:16:42;101245.09;;;7.40;100.00
49813;BME280;35706;52.100;5.056;2023-02-23T01:17:43;101242.56;;;7.39;100.00
49813;BME280;35706;52.100;5.056;2023-02-23T01:18:44;101249.59;;;7.38;100.00
49813;BME280;35706;52.100;5.056;2023-02-23T01:19:44;101241.88;;;7.37;100.00
49813;BME280;35706;52.100;5.056;2023-02-23T01:20:45;101244.50;;;7.37;100.00
49813;BME280;35706;52.100;5.056;2023-02-23T01:21:45;101247.94;;;7.37;100.00
49813;BME280;35706;52.100;5.056;2023-02-23T01:22:48;101245.63;;;7.32;100.00
49813;BME280;35706;52.100;5.056;2023-02-23T01:23:50;101246.56;;;7.31;100.00
49813;BME280;35706;52.100;5.056;2023-02-23T01:24:50;101241.25;;;7.33;100.00
49813;BME280;35706;52.100;5.056;2023-02-23T01:25:51;101246.97;;;7.38;100.00
49813;BME280;35706;52.100;5.056;2023-02-23T01:26:51;101245.00;;;7.42;100.00
49813;BME280;35706;52.100;5.056;2023-02-23T01:27:52;101251.88;;;7.43;100.00
49813;BME280;35706;52.100;5.056;2023-02-23T01:28:58;101250.88;;;7.45;100.00
49813;BME280;35706;52.100;5.056;2023-02-23T01:30:00;101251.59;;;7.47;100.00
49813;BME280;35706;52.100;5.056;2023-02-23T01:31:00;101248.75;;;7.50;100.00
49813;BME280;35706;52.100;5.056;2023-02-23T01:32:00;101250.63;;;7.48;100.00
49813;BME280;35706;52.100;5.056;2023-02-23T01:33:01;101253.34;;;7.47;100.00
49813;BME280;35706;52.100;5.056;2023-02-23T01:34:02;101254.09;;;7.49;100.00
49813;BME280;35706;52.100;5.056;2023-02-23T01:35:08;101253.56;;;7.44;100.00
49813;BME280;35706;52.100;5.056;2023-02-23T01:36:08;101250.97;;;7.44;100.00
49813;BME280;35706;52.100;5.056;2023-02-23T01:37:09;101252.63;;;7.45;100.00
49813;BME280;35706;52.100;5.056;2023-02-23T01:38:10;101255.97;;;7.47;100.00
49813;BME280;35706;52.100;5.056;2023-02-23T01:39:13;101257.03;;;7.44;100.00
49813;BME280;35706;52.100;5.056;2023-02-23T01:40:18;101253.56;;;7.44;100.00
49813;BME280;35706;52.100;5.056;2023-02-23T01:41:29;101253.34;;;7.47;100.00
49813;BME280;35706;52.100;5.056;2023-02-23T01:42:35;101245.72;;;7.44;100.00
49813;BME280;35706;52.100;5.056;2023-02-23T01:44:03;101256.69;;;7.36;100.00
49813;BME280;35706;52.100;5.056;2023-02-23T01:46:43;101246.88;;;7.40;100.00
49813;BME280;35706;52.100;5.056;2023-02-23T01:47:44;101250.00;;;7.32;100.00
49813;BME280;35706;52.100;5.056;2023-02-23T01:48:45;101257.25;;;7.28;100.00
49813;BME280;35706;52.100;5.056;2023-02-23T01:49:46;101251.06;;;7.29;100.00
49813;BME280;35706;52.100;5.056;2023-02-23T01:51:00;101249.19;;;7.31;100.00
49813;BME280;35706;52.100;5.056;2023-02-23T01:52:07;101250.88;;;7.32;100.00
49813;BME280;35706;52.100;5.056;2023-02-23T01:53:11;101245.09;;;7.27;100.00
49813;BME280;35706;52.100;5.056;2023-02-23T01:54:15;101245.63;;;7.32;100.00
49813;BME280;35706;52.100;5.056;2023-02-23T01:55:20;101250.00;;;7.32;100.00
49813;BME280;35706;52.100;5.056;2023-02-23T01:56:28;101248.03;;;7.36;100.00
49813;BME280;35706;52.100;5.056;2023-02-23T01:57:30;101251.38;;;7.38;100.00
49813;BME280;35706;52.100;5.056;2023-02-23T01:58:32;101254.72;;;7.40;100.00
49813;BME280;35706;52.100;5.056;2023-02-23T01:59:42;101255.78;;;7.37;100.00
49813;BME280;35706;52.100;5.056;2023-02-23T02:00:47;101258.16;;;7.40;100.00
49813;BME280;35706;52.100;5.056;2023-02-23T02:01:48;101256.69;;;7.36;100.00
49813;BME280;35706;52.100;5.056;2023-02-23T02:02:48;101252.63;;;7.32;100.00
49813;BME280;35706;52.100;5.056;2023-02-23T02:03:57;101254.00;;;7.38;100.00
49813;BME280;35706;52.100;5.056;2023-02-23T02:05:01;101256.69;;;7.36;100.00
49813;BME280;35706;52.100;5.056;2023-02-23T02:06:06;101260.06;;;7.38;100.00
49813;BME280;35706;52.100;5.056;2023-02-23T02:07:17;101255.88;;;7.36;100.00
49813;BME280;35706;52.100;5.056;2023-02-23T02:08:19;101255.66;;;7.39;100.00
49813;BME280;35706;52.100;5.056;2023-02-23T02:09:23;101252.09;;;7.40;100.00
49813;BME280;35706;52.100;5.056;2023-02-23T02:10:27;101257.03;;;7.44;100.00
49813;BME280;35706;52.100;5.056;2023-02-23T02:11:43;101259.00;;;7.41;100.00
49813;BME280;35706;52.100;5.056;2023-02-23T02:12:54;101261.63;;;7.41;100.00
49813;BME280;35706;52.100;5.056;2023-02-23T02:15:03;101256.91;;;7.46;100.00
49813;BME280;35706;52.100;5.056;2023-02-23T02:16:16;101262.16;;;7.46;100.00
49813;BME280;35706;52.100;5.056;2023-02-23T02:17:34;101266.56;;;7.45;100.00
49813;BME280;35706;52.100;5.056;2023-02-23T02:18:46;101265.50;;;7.48;100.00
49813;BME280;35706;52.100;5.056;2023-02-23T02:21:51;101266.44;;;7.47;100.00
49813;BME280;35706;52.100;5.056;2023-02-23T02:32:30;101260.69;;;7.42;100.00
49813;BME280;35706;52.100;5.056;2023-02-23T02:35:30;101253.56;;;7.44;100.00
49813;BME280;35706;52.100;5.056;2023-02-23T02:37:56;101259.63;;;7.44;100.00
49813;BME280;35706;52.100;5.056;2023-02-23T02:40:26;101267.78;;;7.52;100.00
49813;BME280;35706;52.100;5.056;2023-02-23T02:41:54;101260.28;;;7.48;100.00
49813;BME280;35706;52.100;5.056;2023-02-23T02:43:00;101264.66;;;7.47;100.00
49813;BME280;35706;52.100;5.056;2023-02-23T02:44:22;101260.88;;;7.39;100.00
49813;BME280;35706;52.100;5.056;2023-02-23T02:45:38;101263.50;;;7.39;100.00
49813;BME280;35706;52.100;5.056;2023-02-23T02:46:51;101265.28;;;7.38;100.00
49813;BME280;35706;52.100;5.056;2023-02-23T02:48:34;101265.41;;;7.37;100.00
49813;BME280;35706;52.100;5.056;2023-02-23T02:49:49;101262.06;;;7.34;100.00
49813;BME280;35706;52.100;5.056;2023-02-23T02:51:06;101264.34;;;7.39;100.00
49813;BME280;35706;52.100;5.056;2023-02-23T02:52:19;101263.41;;;7.40;100.00
49813;BME280;35706;52.100;5.056;2023-02-23T02:54:52;101263.72;;;7.36;100.00
49813;BME280;35706;52.100;5.056;2023-02-23T02:55:54;101261.09;;;7.36;100.00
49813;BME280;35706;52.100;5.056;2023-02-23T02:57:00;101255.97;;;7.34;100.00
49813;BME280;35706;52.100;5.056;2023-02-23T02:58:03;101246.88;;;7.27;100.00
49813;BME280;35706;52.100;5.056;2023-02-23T02:59:12;101246.06;;;7.26;100.00
49813;BME280;35706;52.100;5.056;2023-02-23T03:00:39;101242.91;;;7.21;100.00
49813;BME280;35706;52.100;5.056;2023-02-23T03:01:58;101257.03;;;7.19;100.00
49813;BME280;35706;52.100;5.056;2023-02-23T03:04:49;101250.66;;;7.23;100.00
49813;BME280;35706;52.100;5.056;2023-02-23T03:06:08;101247.06;;;7.24;100.00
49813;BME280;35706;52.100;5.056;2023-02-23T03:07:34;101247.06;;;7.24;100.00
49813;BME280;35706;52.100;5.056;2023-02-23T03:09:02;101245.09;;;7.27;100.00
49813;BME280;35706;52.100;5.056;2023-02-23T03:12:41;101251.38;;;7.38;100.00
49813;BME280;35706;52.100;5.056;2023-02-23T03:15:59;101255.66;;;7.39;100.00
49813;BME280;35706;52.100;5.056;2023-02-23T03:17:34;101249.59;;;7.38;100.00
49813;BME280;35706;52.100;5.056;2023-02-23T03:19:21;101256.50;;;7.39;100.00
49813;BME280;35706;52.100;5.056;2023-02-23T03:20:51;101249.50;;;7.40;100.00
49813;BME280;35706;52.100;5.056;2023-02-23T03:22:21;101252.09;;;7.40;100.00
49813;BME280;35706;52.100;5.056;2023-02-23T03:25:26;101255.25;;;7.32;100.00
49813;BME280;35706;52.100;5.056;2023-02-23T03:27:18;101252.22;;;7.25;100.00
49813;BME280;35706;52.100;5.056;2023-02-23T03:28:58;101255.03;;;7.22;100.00
49813;BME280;35706;52.100;5.056;2023-02-23T03:30:50;101258.59;;;7.21;100.00
49813;BME280;35706;52.100;5.056;2023-02-23T03:32:32;101265.59;;;7.21;100.00
49813;BME280;35706;52.100;5.056;2023-02-23T03:36:56;101256.50;;;7.26;100.00
49813;BME280;35706;52.100;5.056;2023-02-23T03:38:37;101262.56;;;7.27;100.00
49813;BME280;35706;52.100;5.056;2023-02-23T03:40:26;101262.56;;;7.27;100.00
49813;BME280;35706;52.100;5.056;2023-02-23T03:41:47;101264.78;;;7.20;100.00
49813;BME280;35706;52.100;5.056;2023-02-23T03:43:15;101264.88;;;7.31;100.00
49813;BME280;35706;52.100;5.056;2023-02-23T03:44:39;101266.03;;;7.27;100.00
49813;BME280;35706;52.100;5.056;2023-02-23T03:46:00;101266.56;;;7.32;100.00
49813;BME280;35706;52.100;5.056;2023-02-23T03:47:22;101270.72;;;7.22;100.00
49813;BME280;35706;52.100;5.056;2023-02-23T03:48:44;101271.34;;;7.26;100.00
49813;BME280;35706;52.100;5.056;2023-02-23T03:50:06;101272.41;;;7.23;100.00
49813;BME280;35706;52.100;5.056;2023-02-23T03:51:27;101273.22;;;7.24;100.00
49813;BME280;35706;52.100;5.056;2023-02-23T03:52:53;101261.94;;;7.23;100.00
49813;BME280;35706;52.100;5.056;2023-02-23T03:54:26;101269.03;;;7.21;100.00
49813;BME280;35706;52.100;5.056;2023-02-23T03:55:51;101268.94;;;7.23;100.00
49813;BME280;35706;52.100;5.056;2023-02-23T03:57:16;101277.63;;;7.23;100.00
49813;BME280;35706;52.100;5.056;2023-02-23T03:58:42;101275.00;;;7.23;100.00
49813;BME280;35706;52.100;5.056;2023-02-23T04:00:07;101269.47;;;7.28;100.00
49813;BME280;35706;52.100;5.056;2023-02-23T04:01:28;101277.13;;;7.31;100.00
49813;BME280;35706;52.100;5.056;2023-02-23T04:02:50;101278.50;;;7.37;100.00
49813;BME280;35706;52.100;5.056;2023-02-23T04:04:11;101279.19;;;7.39;100.00
49813;BME280;35706;52.100;5.056;2023-02-23T04:05:30;101283.41;;;7.41;100.00
49813;BME280;35706;52.100;5.056;2023-02-23T04:06:55;101274.81;;;7.39;100.00
49813;BME280;35706;52.100;5.056;2023-02-23T04:08:17;101274.19;;;7.36;100.00
49813;BME280;35706;52.100;5.056;2023-02-23T04:09:37;101279.09;;;7.40;100.00
49813;BME280;35706;52.100;5.056;2023-02-23T04:11:18;101282.75;;;7.38;100.00
49813;BME280;35706;52.100;5.056;2023-02-23T04:14:03;101284.13;;;7.43;100.00
49813;BME280;35706;52.100;5.056;2023-02-23T04:15:14;101288.72;;;7.40;100.00
49813;BME280;35706;52.100;5.056;2023-02-23T04:16:14;101285.16;;;7.41;100.00
49813;BME280;35706;52.100;5.056;2023-02-23T04:17:16;101287.91;;;7.39;100.00
49813;BME280;35706;52.100;5.056;2023-02-23T04:18:26;101294.78;;;7.40;100.00
49813;BME280;35706;52.100;5.056;2023-02-23T04:19:27;101281.81;;;7.39;100.00
49813;BME280;35706;52.100;5.056;2023-02-23T04:20:28;101290.38;;;7.41;100.00
49813;BME280;35706;52.100;5.056;2023-02-23T04:21:28;101296.16;;;7.46;100.00
49813;BME280;35706;52.100;5.056;2023-02-23T04:22:28;101299.09;;;7.41;100.00
49813;BME280;35706;52.100;5.056;2023-02-23T04:23:29;101297.22;;;7.43;100.00
49813;BME280;35706;52.100;5.056;2023-02-23T04:24:29;101298.03;;;7.44;100.00
49813;BME280;35706;52.100;5.056;2023-02-23T04:25:30;101298.97;;;7.43;100.00
49813;BME280;35706;52.100;5.056;2023-02-23T04:26:30;101306.06;;;7.41;100.00
49813;BME280;35706;52.100;5.056;2023-02-23T04:27:31;101306.19;;;7.39;100.00
49813;BME280;35706;52.100;5.056;2023-02-23T04:28:31;101301.16;;;7.36;100.00
49813;BME280;35706;52.100;5.056;2023-02-23T04:29:31;101300.09;;;7.39;100.00
49813;BME280;35706;52.100;5.056;2023-02-23T04:30:32;101308.81;;;7.39;100.00
49813;BME280;35706;52.100;5.056;2023-02-23T04:31:32;101302.72;;;7.39;100.00
49813;BME280;35706;52.100;5.056;2023-02-23T04:32:32;101303.69;;;7.38;100.00
49813;BME280;35706;52.100;5.056;2023-02-23T04:33:33;101308.81;;;7.39;100.00
49813;BME280;35706;52.100;5.056;2023-02-23T04:34:33;101307.03;;;7.40;100.00
49813;BME280;35706;52.100;5.056;2023-02-23T04:35:33;101307.97;;;7.39;100.00
49813;BME280;35706;52.100;5.056;2023-02-23T04:36:34;101306.28;;;7.38;100.00
49813;BME280;35706;52.100;5.056;2023-02-23T04:37:35;101305.66;;;7.34;100.00
49813;BME280;35706;52.100;5.056;2023-02-23T04:38:35;101301.28;;;7.34;100.00
49813;BME280;35706;52.100;5.056;2023-02-23T04:39:36;101297.63;;;7.37;100.00
49813;BME280;35706;52.100;5.056;2023-02-23T04:40:36;101301.28;;;7.34;100.00
49813;BME280;35706;52.100;5.056;2023-02-23T04:41:36;101302.13;;;7.35;100.00
49813;BME280;35706;52.100;5.056;2023-02-23T04:42:38;101304.63;;;7.37;100.00
49813;BME280;35706;52.100;5.056;2023-02-23T04:43:38;101302.22;;;7.33;100.00
49813;BME280;35706;52.100;5.056;2023-02-23T04:44:38;101308.19;;;7.36;100.00
49813;BME280;35706;52.100;5.056;2023-02-23T04:45:39;101301.06;;;7.38;100.00
49813;BME280;35706;52.100;5.056;2023-02-23T04:46:39;101303.03;;;7.34;100.00
49813;BME280;35706;52.100;5.056;2023-02-23T04:47:39;101304.72;;;7.35;100.00
49813;BME280;35706;52.100;5.056;2023-02-23T04:48:40;101305.56;;;7.36;100.00
49813;BME280;35706;52.100;5.056;2023-02-23T04:49:42;101300.56;;;7.32;100.00
49813;BME280;35706;52.100;5.056;2023-02-23T04:50:45;101304.81;;;7.33;100.00
49813;BME280;35706;52.100;5.056;2023-02-23T04:51:45;101298.78;;;7.33;100.00
49813;BME280;35706;52.100;5.056;2023-02-23T04:52:47;101302.44;;;7.30;100.00
49813;BME280;35706;52.100;5.056;2023-02-23T04:53:47;101311.00;;;7.32;100.00
49813;BME280;35706;52.100;5.056;2023-02-23T04:54:48;101303.03;;;7.34;100.00
49813;BME280;35706;52.100;5.056;2023-02-23T04:55:48;101311.94;;;7.31;100.00
49813;BME280;35706;52.100;5.056;2023-02-23T04:56:48;101312.91;;;7.30;100.00
49813;BME280;35706;52.100;5.056;2023-02-23T04:57:49;101317.38;;;7.28;100.00
49813;BME280;35706;52.100;5.056;2023-02-23T04:58:50;101304.19;;;7.30;100.00
49813;BME280;35706;52.100;5.056;2023-02-23T04:59:50;101304.09;;;7.31;100.00
49813;BME280;35706;52.100;5.056;2023-02-23T05:00:50;101306.19;;;7.26;100.00
49813;BME280;35706;52.100;5.056;2023-02-23T05:01:51;101313.72;;;7.31;100.00
49813;BME280;35706;52.100;5.056;2023-02-23T05:02:51;101307.75;;;7.29;100.00
49813;BME280;35706;52.100;5.056;2023-02-23T05:03:51;101311.09;;;7.31;100.00
49813;BME280;35706;52.100;5.056;2023-02-23T05:04:52;101308.59;;;7.29;100.00
49813;BME280;35706;52.100;5.056;2023-02-23T05:05:52;101307.66;;;7.30;100.00
49813;BME280;35706;52.100;5.056;2023-02-23T05:06:53;101310.16;;;7.32;100.00
49813;BME280;35706;52.100;5.056;2023-02-23T05:07:53;101314.88;;;7.27;100.00
49813;BME280;35706;52.100;5.056;2023-02-23T05:08:54;101310.56;;;7.26;100.00
49813;BME280;35706;52.100;5.056;2023-02-23T05:09:54;101318.31;;;7.27;100.00
49813;BME280;35706;52.100;5.056;2023-02-23T05:10:54;101318.41;;;7.26;100.00
49813;BME280;35706;52.100;5.056;2023-02-23T05:11:55;101319.28;;;7.26;100.00
49813;BME280;35706;52.100;5.056;2023-02-23T05:12:56;101313.81;;;7.29;100.00
49813;BME280;35706;52.100;5.056;2023-02-23T05:13:57;101314.78;;;7.28;100.00
49813;BME280;35706;52.100;5.056;2023-02-23T05:14:57;101312.16;;;7.28;100.00
49813;BME280;35706;52.100;5.056;2023-02-23T05:15:58;101315.06;;;7.24;100.00
49813;BME280;35706;52.100;5.056;2023-02-23T05:16:58;101325.22;;;7.28;100.00
49813;BME280;35706;52.100;5.056;2023-02-23T05:17:58;101314.22;;;7.23;100.00
49813;BME280;35706;52.100;5.056;2023-02-23T05:18:59;101316.00;;;7.23;100.00
49813;BME280;35706;52.100;5.056;2023-02-23T05:19:59;101317.78;;;7.22;100.00
49813;BME280;35706;52.100;5.056;2023-02-23T05:21:04;101320.28;;;7.24;100.00
49813;BME280;35706;52.100;5.056;2023-02-23T05:22:06;101315.91;;;7.24;100.00
49813;BME280;35706;52.100;5.056;2023-02-23T05:23:06;101323.75;;;7.24;100.00
49813;BME280;35706;52.100;5.056;2023-02-23T05:24:07;101323.53;;;7.27;100.00
49813;BME280;35706;52.100;5.056;2023-02-23T05:25:08;101326.16;;;7.27;100.00
49813;BME280;35706;52.100;5.056;2023-02-23T05:26:11;101320.84;;;7.29;100.00
49813;BME280;35706;52.100;5.056;2023-02-23T05:27:11;101322.72;;;7.27;100.00
49813;BME280;35706;52.100;5.056;2023-02-23T05:28:14;101323.53;;;7.27;100.00
49813;BME280;35706;52.100;5.056;2023-02-23T05:29:14;101323.84;;;7.23;100.00
49813;BME280;35706;52.100;5.056;2023-02-23T05:30:15;101318.63;;;7.23;100.00
49813;BME280;35706;52.100;5.056;2023-02-23T05:31:16;101332.13;;;7.29;100.00
49813;BME280;35706;52.100;5.056;2023-02-23T05:32:17;101328.59;;;7.30;100.00
49813;BME280;35706;52.100;5.056;2023-02-23T05:33:17;101328.19;;;7.37;100.00
49813;BME280;35706;52.100;5.056;2023-02-23T05:34:18;101325.66;;;7.35;100.00
49813;BME280;35706;52.100;5.056;2023-02-23T05:35:19;101321.25;;;7.36;100.00
49813;BME280;35706;52.100;5.056;2023-02-23T05:36:20;101333.41;;;7.37;100.00
49813;BME280;35706;52.100;5.056;2023-02-23T05:37:20;101334.09;;;7.39;100.00
49813;BME280;35706;52.100;5.056;2023-02-23T05:38:21;101332.44;;;7.38;100.00
49813;BME280;35706;52.100;5.056;2023-02-23T05:39:22;101328.03;;;7.38;100.00
49813;BME280;35706;52.100;5.056;2023-02-23T05:40:22;101327.44;;;7.34;100.00
49813;BME280;35706;52.100;5.056;2023-02-23T05:41:22;101326.38;;;7.37;100.00
49813;BME280;35706;52.100;5.056;2023-02-23T05:42:23;101334.31;;;7.36;100.00
49813;BME280;35706;52.100;5.056;2023-02-23T05:43:23;101328.28;;;7.35;100.00
49813;BME280;35706;52.100;5.056;2023-02-23T05:44:24;101325.00;;;7.31;100.00
49813;BME280;35706;52.100;5.056;2023-02-23T05:45:24;101329.09;;;7.36;100.00
49813;BME280;35706;52.100;5.056;2023-02-23T05:46:25;101329.84;;;7.38;100.00
49813;BME280;35706;52.100;5.056;2023-02-23T05:47:26;101331.72;;;7.36;100.00
49813;BME280;35706;52.100;5.056;2023-02-23T05:48:27;101328.28;;;7.35;100.00
49813;BME280;35706;52.100;5.056;2023-02-23T05:49:28;101339.03;;;7.30;100.00
49813;BME280;35706;52.100;5.056;2023-02-23T05:50:28;101329.59;;;7.28;100.00
49813;BME280;35706;52.100;5.056;2023-02-23T05:51:30;101332.84;;;7.31;100.00
49813;BME280;35706;52.100;5.056;2023-02-23T05:52:31;101341.44;;;7.33;100.00
49813;BME280;35706;52.100;5.056;2023-02-23T05:53:32;101330.25;;;7.31;100.00
49813;BME280;35706;52.100;5.056;2023-02-23T05:54:32;101328.69;;;7.29;100.00
49813;BME280;35706;52.100;5.056;2023-02-23T05:55:34;101331.94;;;7.32;100.00
49813;BME280;35706;52.100;5.056;2023-02-23T05:56:35;101333.19;;;7.40;100.00
49813;BME280;35706;52.100;5.056;2023-02-23T05:57:35;101331.94;;;7.32;100.00
49813;BME280;35706;52.100;5.056;2023-02-23T05:58:36;101334.44;;;7.34;100.00
49813;BME280;35706;52.100;5.056;2023-02-23T05:59:36;101339.66;;;7.34;100.00
49813;BME280;35706;52.100;5.056;2023-02-23T06:00:37;101341.66;;;7.30;100.00
49813;BME280;35706;52.100;5.056;2023-02-23T06:01:37;101336.31;;;7.32;100.00
49813;BME280;35706;52.100;5.056;2023-02-23T06:02:38;101344.28;;;7.30;100.00
49813;BME280;35706;52.100;5.056;2023-02-23T06:03:39;101341.66;;;7.30;100.00
49813;BME280;35706;52.100;5.056;2023-02-23T06:04:39;101337.34;;;7.29;100.00
49813;BME280;35706;52.100;5.056;2023-02-23T06:05:40;101338.50;;;7.25;100.00
49813;BME280;35706;52.100;5.056;2023-02-23T06:06:42;101341.00;;;7.27;100.00
49813;BME280;35706;52.100;5.056;2023-02-23T06:07:42;101349.69;;;7.27;100.00
49813;BME280;35706;52.100;5.056;2023-02-23T06:08:42;101342.06;;;7.24;100.00
49813;BME280;35706;52.100;5.056;2023-02-23T06:09:43;101347.28;;;7.24;100.00
49813;BME280;35706;52.100;5.056;2023-02-23T06:10:43;101347.16;;;7.26;100.00
49813;BME280;35706;52.100;5.056;2023-02-23T06:11:43;101347.06;;;7.27;100.00
49813;BME280;35706;52.100;5.056;2023-02-23T06:12:44;101349.59;;;7.29;100.00
49813;BME280;35706;52.100;5.056;2023-02-23T06:13:44;101349.50;;;7.30;100.00
49813;BME280;35706;52.100;5.056;2023-02-23T06:14:47;101349.91;;;7.24;100.00
49813;BME280;35706;52.100;5.056;2023-02-23T06:15:49;101345.94;;;7.31;100.00
49813;BME280;35706;52.100;5.056;2023-02-23T06:16:50;101346.03;;;7.30;100.00
49813;BME280;35706;52.100;5.056;2023-02-23T06:17:50;101352.13;;;7.30;100.00
49813;BME280;35706;52.100;5.056;2023-02-23T06:18:50;101343.63;;;7.27;100.00